sensor_id;sensor_type;location;lat;lon;timestamp;P1;durP1;ratioP1;P2;durP2;ratioP2
434;SDS011;204;48.942;9.256;2022-07-29T00:02:22;7.20;;;6.80;;
434;SDS011;204;48.942;9.256;2022-07-29T00:04:48;6.80;;;6.40;;
434;SDS011;204;48.942;9.256;2022-07-29T00:07:13;7.30;;;6.90;;
434;SDS011;204;48.942;9.256;2022-07-29T00:09:39;7.50;;;7.10;;
434;SDS011;204;48.942;9.256;2022-07-29T00:12:05;8.13;;;7.73;;
434;SDS011;204;48.942;9.256;2022-07-29T00:14:31;7.07;;;6.67;;
434;SDS011;204;48.942;9.256;2022-07-29T00:16:56;7.50;;;7.10;;
434;SDS011;204;48.942;9.256;2022-07-29T00:19:22;6.87;;;6.47;;
434;SDS011;204;48.942;9.256;2022-07-29T00:21:47;7.00;;;6.60;;
434;SDS011;204;48.942;9.256;2022-07-29T00:24:13;8.03;;;7.60;;
434;SDS011;204;48.942;9.256;2022-07-29T00:26:38;7.17;;;6.77;;
434;SDS011;204;48.942;9.256;2022-07-29T00:29:04;7.30;;;6.90;;
434;SDS011;204;48.942;9.256;2022-07-29T00:31:30;9.33;;;7.53;;
434;SDS011;204;48.942;9.256;2022-07-29T00:33:56;8.17;;;7.77;;
434;SDS011;204;48.942;9.256;2022-07-29T00:36:21;8.07;;;7.67;;
434;SDS011;204;48.942;9.256;2022-07-29T00:38:48;8.60;;;8.10;;
434;SDS011;204;48.942;9.256;2022-07-29T00:41:14;8.80;;;7.93;;
434;SDS011;204;48.942;9.256;2022-07-29T00:43:40;7.37;;;6.97;;
434;SDS011;204;48.942;9.256;2022-07-29T00:46:06;9.33;;;8.00;;
434;SDS011;204;48.942;9.256;2022-07-29T00:48:32;8.80;;;8.20;;
434;SDS011;204;48.942;9.256;2022-07-29T00:50:58;8.37;;;7.93;;
434;SDS011;204;48.942;9.256;2022-07-29T00:53:26;8.43;;;7.97;;
434;SDS011;204;48.942;9.256;2022-07-29T00:55:55;8.97;;;8.47;;
434;SDS011;204;48.942;9.256;2022-07-29T00:58:22;8.80;;;8.30;;
434;SDS011;204;48.942;9.256;2022-07-29T01:00:48;9.37;;;8.83;;
434;SDS011;204;48.942;9.256;2022-07-29T01:03:14;8.50;;;8.00;;
434;SDS011;204;48.942;9.256;2022-07-29T01:05:40;9.10;;;8.60;;
434;SDS011;204;48.942;9.256;2022-07-29T01:08:08;9.17;;;8.67;;
434;SDS011;204;48.942;9.256;2022-07-29T01:10:36;8.57;;;8.10;;
434;SDS011;204;48.942;9.256;2022-07-29T01:13:03;9.50;;;9.00;;
434;SDS011;204;48.942;9.256;2022-07-29T01:15:29;8.67;;;8.20;;
434;SDS011;204;48.942;9.256;2022-07-29T01:18:03;9.57;;;9.07;;
434;SDS011;204;48.942;9.256;2022-07-29T01:26:41;9.30;;;8.80;;
434;SDS011;204;48.942;9.256;2022-07-29T01:29:29;9.70;;;9.20;;
434;SDS011;204;48.942;9.256;2022-07-29T01:32:13;9.50;;;9.00;;
434;SDS011;204;48.942;9.256;2022-07-29T01:39:57;10.97;;;10.37;;
434;SDS011;204;48.942;9.256;2022-07-29T01:45:06;9.70;;;9.17;;
434;SDS011;204;48.942;9.256;2022-07-29T01:47:39;9.33;;;8.83;;
434;SDS011;204;48.942;9.256;2022-07-29T01:50:12;9.93;;;9.43;;
434;SDS011;204;48.942;9.256;2022-07-29T01:52:52;9.90;;;9.40;;
434;SDS011;204;48.942;9.256;2022-07-29T01:55:25;10.97;;;10.37;;
434;SDS011;204;48.942;9.256;2022-07-29T01:57:54;10.90;;;10.30;;
434;SDS011;204;48.942;9.256;2022-07-29T02:00:22;11.00;;;10.50;;
434;SDS011;204;48.942;9.256;2022-07-29T02:02:48;10.87;;;10.27;;
434;SDS011;204;48.942;9.256;2022-07-29T02:05:15;10.37;;;9.87;;
434;SDS011;204;48.942;9.256;2022-07-29T02:07:43;9.90;;;9.40;;
434;SDS011;204;48.942;9.256;2022-07-29T02:10:11;9.80;;;9.30;;
434;SDS011;204;48.942;9.256;2022-07-29T02:12:38;10.03;;;9.53;;
434;SDS011;204;48.942;9.256;2022-07-29T02:15:05;10.70;;;10.10;;
434;SDS011;204;48.942;9.256;2022-07-29T02:17:39;10.17;;;9.67;;
434;SDS011;204;48.942;9.256;2022-07-29T02:20:08;10.97;;;10.37;;
434;SDS011;204;48.942;9.256;2022-07-29T02:22:35;9.60;;;9.10;;
434;SDS011;204;48.942;9.256;2022-07-29T02:25:03;9.60;;;9.00;;
434;SDS011;204;48.942;9.256;2022-07-29T02:27:30;10.87;;;10.27;;
434;SDS011;204;48.942;9.256;2022-07-29T02:29:59;10.57;;;10.00;;
434;SDS011;204;48.942;9.256;2022-07-29T02:32:26;11.10;;;10.50;;
434;SDS011;204;48.942;9.256;2022-07-29T02:34:53;11.73;;;11.13;;
434;SDS011;204;48.942;9.256;2022-07-29T02:37:20;11.07;;;10.47;;
434;SDS011;204;48.942;9.256;2022-07-29T02:39:46;10.47;;;9.93;;
434;SDS011;204;48.942;9.256;2022-07-29T02:42:14;10.27;;;9.77;;
434;SDS011;204;48.942;9.256;2022-07-29T02:44:42;10.23;;;9.73;;
434;SDS011;204;48.942;9.256;2022-07-29T02:50:51;10.53;;;9.97;;
434;SDS011;204;48.942;9.256;2022-07-29T02:53:05;10.00;;;9.50;;
434;SDS011;204;48.942;9.256;2022-07-29T02:56:01;12.60;;;10.30;;
434;SDS011;204;48.942;9.256;2022-07-29T02:58:30;10.23;;;9.73;;
434;SDS011;204;48.942;9.256;2022-07-29T03:01:04;12.27;;;10.33;;
434;SDS011;204;48.942;9.256;2022-07-29T03:03:37;10.80;;;10.20;;
434;SDS011;204;48.942;9.256;2022-07-29T03:06:04;10.73;;;10.13;;
434;SDS011;204;48.942;9.256;2022-07-29T03:08:31;10.47;;;9.93;;
434;SDS011;204;48.942;9.256;2022-07-29T03:10:57;10.20;;;9.70;;
434;SDS011;204;48.942;9.256;2022-07-29T03:13:24;9.97;;;9.47;;
434;SDS011;204;48.942;9.256;2022-07-29T03:15:50;11.30;;;9.57;;
434;SDS011;204;48.942;9.256;2022-07-29T03:18:17;10.27;;;9.77;;
434;SDS011;204;48.942;9.256;2022-07-29T03:20:43;10.60;;;10.03;;
434;SDS011;204;48.942;9.256;2022-07-29T03:23:08;10.23;;;9.73;;
434;SDS011;204;48.942;9.256;2022-07-29T03:25:34;10.30;;;9.80;;
434;SDS011;204;48.942;9.256;2022-07-29T03:28:00;12.03;;;10.10;;
434;SDS011;204;48.942;9.256;2022-07-29T03:30:26;11.30;;;10.70;;
434;SDS011;204;48.942;9.256;2022-07-29T03:32:52;11.13;;;10.53;;
434;SDS011;204;48.942;9.256;2022-07-29T03:35:21;10.60;;;10.00;;
434;SDS011;204;48.942;9.256;2022-07-29T03:37:47;10.93;;;10.33;;
434;SDS011;204;48.942;9.256;2022-07-29T03:40:15;10.57;;;10.00;;
434;SDS011;204;48.942;9.256;2022-07-29T03:42:44;10.73;;;10.13;;
434;SDS011;204;48.942;9.256;2022-07-29T03:45:13;11.40;;;10.80;;
434;SDS011;204;48.942;9.256;2022-07-29T03:47:43;10.47;;;9.93;;
434;SDS011;204;48.942;9.256;2022-07-29T03:50:13;11.17;;;9.63;;
434;SDS011;204;48.942;9.256;2022-07-29T03:52:40;12.17;;;11.57;;
434;SDS011;204;48.942;9.256;2022-07-29T03:55:06;14.40;;;11.80;;
434;SDS011;204;48.942;9.256;2022-07-29T03:57:33;9.97;;;9.47;;
434;SDS011;204;48.942;9.256;2022-07-29T04:00:01;12.23;;;11.63;;
434;SDS011;204;48.942;9.256;2022-07-29T04:02:28;10.43;;;9.90;;
434;SDS011;204;48.942;9.256;2022-07-29T04:04:53;10.50;;;9.97;;
434;SDS011;204;48.942;9.256;2022-07-29T04:07:19;10.00;;;9.50;;
434;SDS011;204;48.942;9.256;2022-07-29T04:09:45;10.77;;;10.17;;
434;SDS011;204;48.942;9.256;2022-07-29T04:12:10;10.97;;;10.37;;
434;SDS011;204;48.942;9.256;2022-07-29T04:14:36;10.73;;;10.13;;
434;SDS011;204;48.942;9.256;2022-07-29T04:17:02;9.57;;;9.07;;
434;SDS011;204;48.942;9.256;2022-07-29T04:19:29;10.43;;;9.90;;
434;SDS011;204;48.942;9.256;2022-07-29T04:21:54;10.50;;;8.83;;
434;SDS011;204;48.942;9.256;2022-07-29T04:24:20;9.70;;;9.03;;
434;SDS011;204;48.942;9.256;2022-07-29T04:26:46;9.60;;;9.10;;
434;SDS011;204;48.942;9.256;2022-07-29T04:29:12;10.33;;;8.80;;
434;SDS011;204;48.942;9.256;2022-07-29T04:31:39;10.77;;;9.27;;
434;SDS011;204;48.942;9.256;2022-07-29T04:34:05;9.70;;;9.20;;
434;SDS011;204;48.942;9.256;2022-07-29T04:36:30;8.93;;;8.43;;
434;SDS011;204;48.942;9.256;2022-07-29T04:38:56;8.70;;;8.20;;
434;SDS011;204;48.942;9.256;2022-07-29T04:41:22;9.83;;;9.33;;
434;SDS011;204;48.942;9.256;2022-07-29T04:43:48;9.30;;;8.80;;
434;SDS011;204;48.942;9.256;2022-07-29T04:46:14;10.83;;;8.80;;
434;SDS011;204;48.942;9.256;2022-07-29T04:48:39;9.07;;;8.57;;
434;SDS011;204;48.942;9.256;2022-07-29T04:51:05;8.10;;;7.67;;
434;SDS011;204;48.942;9.256;2022-07-29T04:53:30;8.23;;;7.83;;
434;SDS011;204;48.942;9.256;2022-07-29T04:55:56;8.07;;;7.67;;
434;SDS011;204;48.942;9.256;2022-07-29T04:58:22;9.13;;;8.63;;
434;SDS011;204;48.942;9.256;2022-07-29T05:00:48;9.27;;;8.50;;
434;SDS011;204;48.942;9.256;2022-07-29T05:03:14;7.83;;;7.00;;
434;SDS011;204;48.942;9.256;2022-07-29T05:05:40;7.73;;;7.33;;
434;SDS011;204;48.942;9.256;2022-07-29T05:08:06;8.17;;;7.77;;
434;SDS011;204;48.942;9.256;2022-07-29T05:10:31;7.50;;;7.10;;
434;SDS011;204;48.942;9.256;2022-07-29T05:12:57;8.47;;;8.00;;
434;SDS011;204;48.942;9.256;2022-07-29T05:15:23;7.90;;;7.50;;
434;SDS011;204;48.942;9.256;2022-07-29T05:17:48;9.30;;;7.73;;
434;SDS011;204;48.942;9.256;2022-07-29T05:20:14;7.60;;;7.20;;
434;SDS011;204;48.942;9.256;2022-07-29T05:22:40;8.37;;;7.93;;
434;SDS011;204;48.942;9.256;2022-07-29T05:25:05;6.70;;;6.30;;
434;SDS011;204;48.942;9.256;2022-07-29T05:27:31;7.57;;;7.17;;
434;SDS011;204;48.942;9.256;2022-07-29T05:29:57;7.40;;;7.00;;
434;SDS011;204;48.942;9.256;2022-07-29T05:32:22;6.70;;;6.30;;
434;SDS011;204;48.942;9.256;2022-07-29T05:34:48;7.23;;;6.83;;
434;SDS011;204;48.942;9.256;2022-07-29T05:37:13;6.90;;;6.50;;
434;SDS011;204;48.942;9.256;2022-07-29T05:39:39;7.70;;;7.13;;
434;SDS011;204;48.942;9.256;2022-07-29T05:42:08;8.80;;;7.00;;
434;SDS011;204;48.942;9.256;2022-07-29T05:44:38;6.87;;;6.47;;
434;SDS011;204;48.942;9.256;2022-07-29T05:47:04;8.83;;;7.00;;
434;SDS011;204;48.942;9.256;2022-07-29T05:49:29;6.87;;;6.50;;
434;SDS011;204;48.942;9.256;2022-07-29T05:51:55;10.47;;;7.73;;
434;SDS011;204;48.942;9.256;2022-07-29T05:54:21;6.27;;;5.93;;
434;SDS011;204;48.942;9.256;2022-07-29T05:56:46;6.10;;;5.80;;
434;SDS011;204;48.942;9.256;2022-07-29T05:59:12;6.70;;;6.30;;
434;SDS011;204;48.942;9.256;2022-07-29T06:01:37;8.17;;;6.20;;
434;SDS011;204;48.942;9.256;2022-07-29T06:04:04;6.43;;;6.03;;
434;SDS011;204;48.942;9.256;2022-07-29T06:06:33;5.97;;;5.67;;
434;SDS011;204;48.942;9.256;2022-07-29T06:08:59;5.80;;;5.50;;
434;SDS011;204;48.942;9.256;2022-07-29T06:11:26;7.20;;;6.10;;
434;SDS011;204;48.942;9.256;2022-07-29T06:13:51;5.43;;;5.13;;
434;SDS011;204;48.942;9.256;2022-07-29T06:16:18;6.20;;;5.90;;
434;SDS011;204;48.942;9.256;2022-07-29T06:18:44;8.43;;;5.77;;
434;SDS011;204;48.942;9.256;2022-07-29T06:21:09;5.63;;;5.33;;
434;SDS011;204;48.942;9.256;2022-07-29T06:23:38;5.40;;;5.10;;
434;SDS011;204;48.942;9.256;2022-07-29T06:26:04;5.90;;;5.60;;
434;SDS011;204;48.942;9.256;2022-07-29T06:28:30;5.17;;;4.87;;
434;SDS011;204;48.942;9.256;2022-07-29T06:30:56;5.60;;;5.30;;
434;SDS011;204;48.942;9.256;2022-07-29T06:33:21;5.60;;;5.30;;
434;SDS011;204;48.942;9.256;2022-07-29T06:35:47;6.00;;;4.83;;
434;SDS011;204;48.942;9.256;2022-07-29T06:38:14;4.30;;;4.00;;
434;SDS011;204;48.942;9.256;2022-07-29T06:40:43;5.43;;;5.13;;
434;SDS011;204;48.942;9.256;2022-07-29T06:43:24;4.00;;;3.80;;
434;SDS011;204;48.942;9.256;2022-07-29T06:46:12;4.60;;;4.30;;
434;SDS011;204;48.942;9.256;2022-07-29T06:48:39;5.00;;;4.07;;
434;SDS011;204;48.942;9.256;2022-07-29T06:51:07;4.33;;;4.03;;
434;SDS011;204;48.942;9.256;2022-07-29T06:53:33;4.90;;;4.60;;
434;SDS011;204;48.942;9.256;2022-07-29T06:56:00;4.00;;;3.80;;
434;SDS011;204;48.942;9.256;2022-07-29T06:58:28;4.90;;;4.60;;
434;SDS011;204;48.942;9.256;2022-07-29T07:00:54;4.63;;;4.33;;
434;SDS011;204;48.942;9.256;2022-07-29T07:03:21;5.17;;;4.23;;
434;SDS011;204;48.942;9.256;2022-07-29T07:05:47;4.37;;;4.07;;
434;SDS011;204;48.942;9.256;2022-07-29T07:08:13;4.43;;;4.13;;
434;SDS011;204;48.942;9.256;2022-07-29T07:10:40;5.00;;;4.70;;
434;SDS011;204;48.942;9.256;2022-07-29T07:13:07;4.70;;;4.40;;
434;SDS011;204;48.942;9.256;2022-07-29T07:15:32;4.80;;;4.50;;
434;SDS011;204;48.942;9.256;2022-07-29T07:17:58;5.03;;;4.73;;
434;SDS011;204;48.942;9.256;2022-07-29T07:20:24;4.07;;;3.87;;
434;SDS011;204;48.942;9.256;2022-07-29T07:22:50;4.77;;;4.47;;
434;SDS011;204;48.942;9.256;2022-07-29T07:25:15;4.43;;;4.13;;
434;SDS011;204;48.942;9.256;2022-07-29T07:27:42;4.13;;;3.90;;
434;SDS011;204;48.942;9.256;2022-07-29T07:30:09;6.13;;;4.30;;
434;SDS011;204;48.942;9.256;2022-07-29T07:32:34;4.40;;;4.10;;
434;SDS011;204;48.942;9.256;2022-07-29T07:35:00;3.73;;;3.40;;
434;SDS011;204;48.942;9.256;2022-07-29T07:37:27;4.30;;;4.00;;
434;SDS011;204;48.942;9.256;2022-07-29T07:39:52;5.37;;;4.00;;
434;SDS011;204;48.942;9.256;2022-07-29T07:42:18;3.90;;;3.70;;
434;SDS011;204;48.942;9.256;2022-07-29T07:44:44;3.77;;;3.57;;
434;SDS011;204;48.942;9.256;2022-07-29T07:47:11;4.37;;;4.07;;
434;SDS011;204;48.942;9.256;2022-07-29T07:49:37;4.43;;;3.83;;
434;SDS011;204;48.942;9.256;2022-07-29T07:52:02;4.67;;;4.03;;
434;SDS011;204;48.942;9.256;2022-07-29T07:54:28;4.23;;;3.97;;
434;SDS011;204;48.942;9.256;2022-07-29T07:56:54;6.47;;;4.73;;
434;SDS011;204;48.942;9.256;2022-07-29T07:59:20;4.00;;;3.80;;
434;SDS011;204;48.942;9.256;2022-07-29T08:01:45;5.10;;;4.10;;
434;SDS011;204;48.942;9.256;2022-07-29T08:04:11;4.37;;;4.07;;
434;SDS011;204;48.942;9.256;2022-07-29T08:06:36;4.60;;;4.20;;
434;SDS011;204;48.942;9.256;2022-07-29T08:09:03;3.70;;;3.50;;
434;SDS011;204;48.942;9.256;2022-07-29T08:11:29;4.03;;;3.77;;
434;SDS011;204;48.942;9.256;2022-07-29T08:13:55;4.00;;;3.80;;
434;SDS011;204;48.942;9.256;2022-07-29T08:16:21;4.93;;;3.90;;
434;SDS011;204;48.942;9.256;2022-07-29T08:18:46;5.93;;;4.23;;
434;SDS011;204;48.942;9.256;2022-07-29T08:21:13;3.43;;;3.23;;
434;SDS011;204;48.942;9.256;2022-07-29T08:23:40;4.43;;;4.13;;
434;SDS011;204;48.942;9.256;2022-07-29T08:26:17;10.90;;;7.80;;
434;SDS011;204;48.942;9.256;2022-07-29T08:28:44;6.20;;;4.33;;
434;SDS011;204;48.942;9.256;2022-07-29T08:31:11;4.43;;;4.13;;
434;SDS011;204;48.942;9.256;2022-07-29T08:33:38;4.53;;;3.90;;
434;SDS011;204;48.942;9.256;2022-07-29T08:36:05;4.60;;;4.30;;
434;SDS011;204;48.942;9.256;2022-07-29T08:38:31;4.30;;;4.00;;
434;SDS011;204;48.942;9.256;2022-07-29T08:40:57;5.00;;;4.70;;
434;SDS011;204;48.942;9.256;2022-07-29T08:43:24;5.77;;;5.47;;
434;SDS011;204;48.942;9.256;2022-07-29T08:45:51;5.27;;;4.93;;
434;SDS011;204;48.942;9.256;2022-07-29T08:48:21;5.83;;;4.40;;
434;SDS011;204;48.942;9.256;2022-07-29T08:50:49;3.87;;;3.57;;
434;SDS011;204;48.942;9.256;2022-07-29T08:53:23;6.33;;;3.70;;
434;SDS011;204;48.942;9.256;2022-07-29T08:55:51;5.77;;;3.90;;
434;SDS011;204;48.942;9.256;2022-07-29T08:58:18;6.73;;;4.20;;
434;SDS011;204;48.942;9.256;2022-07-29T09:00:54;4.70;;;4.40;;
434;SDS011;204;48.942;9.256;2022-07-29T09:03:22;4.97;;;4.70;;
434;SDS011;204;48.942;9.256;2022-07-29T09:05:49;4.70;;;4.40;;
434;SDS011;204;48.942;9.256;2022-07-29T09:08:16;4.23;;;3.97;;
434;SDS011;204;48.942;9.256;2022-07-29T09:10:42;4.40;;;4.13;;
434;SDS011;204;48.942;9.256;2022-07-29T09:13:09;5.63;;;5.33;;
434;SDS011;204;48.942;9.256;2022-07-29T09:15:34;10.67;;;8.67;;
434;SDS011;204;48.942;9.256;2022-07-29T09:18:00;5.07;;;4.20;;
434;SDS011;204;48.942;9.256;2022-07-29T09:20:27;5.10;;;4.80;;
434;SDS011;204;48.942;9.256;2022-07-29T09:23:13;5.00;;;4.70;;
434;SDS011;204;48.942;9.256;2022-07-29T09:25:39;5.10;;;4.80;;
434;SDS011;204;48.942;9.256;2022-07-29T09:28:15;5.30;;;4.17;;
434;SDS011;204;48.942;9.256;2022-07-29T09:30:56;5.10;;;4.80;;
434;SDS011;204;48.942;9.256;2022-07-29T09:33:31;5.77;;;5.47;;
434;SDS011;204;48.942;9.256;2022-07-29T09:36:03;6.13;;;4.60;;
434;SDS011;204;48.942;9.256;2022-07-29T09:38:30;5.40;;;5.10;;
434;SDS011;204;48.942;9.256;2022-07-29T09:40:56;5.43;;;5.13;;
434;SDS011;204;48.942;9.256;2022-07-29T09:43:23;5.20;;;4.90;;
434;SDS011;204;48.942;9.256;2022-07-29T09:45:49;8.40;;;5.63;;
434;SDS011;204;48.942;9.256;2022-07-29T09:48:19;5.07;;;4.73;;
434;SDS011;204;48.942;9.256;2022-07-29T09:50:46;5.43;;;5.13;;
434;SDS011;204;48.942;9.256;2022-07-29T09:53:29;7.17;;;5.10;;
434;SDS011;204;48.942;9.256;2022-07-29T09:55:59;5.07;;;4.77;;
434;SDS011;204;48.942;9.256;2022-07-29T09:58:25;5.00;;;4.70;;
434;SDS011;204;48.942;9.256;2022-07-29T10:00:51;6.43;;;5.90;;
434;SDS011;204;48.942;9.256;2022-07-29T10:03:18;8.10;;;5.97;;
434;SDS011;204;48.942;9.256;2022-07-29T10:05:44;6.93;;;6.50;;
434;SDS011;204;48.942;9.256;2022-07-29T10:08:11;7.27;;;6.20;;
434;SDS011;204;48.942;9.256;2022-07-29T10:10:41;5.83;;;5.40;;
434;SDS011;204;48.942;9.256;2022-07-29T10:13:08;5.77;;;5.47;;
434;SDS011;204;48.942;9.256;2022-07-29T10:15:37;5.10;;;4.80;;
434;SDS011;204;48.942;9.256;2022-07-29T10:18:06;6.07;;;5.00;;
434;SDS011;204;48.942;9.256;2022-07-29T10:20:32;5.00;;;4.70;;
434;SDS011;204;48.942;9.256;2022-07-29T10:22:58;5.10;;;4.83;;
434;SDS011;204;48.942;9.256;2022-07-29T10:25:24;6.20;;;5.00;;
434;SDS011;204;48.942;9.256;2022-07-29T10:27:51;5.10;;;4.80;;
434;SDS011;204;48.942;9.256;2022-07-29T10:30:18;4.80;;;4.50;;
434;SDS011;204;48.942;9.256;2022-07-29T10:32:57;9.43;;;8.93;;
434;SDS011;204;48.942;9.256;2022-07-29T10:38:50;8.37;;;5.03;;
434;SDS011;204;48.942;9.256;2022-07-29T10:44:23;5.13;;;4.87;;
434;SDS011;204;48.942;9.256;2022-07-29T10:46:50;5.57;;;5.27;;
434;SDS011;204;48.942;9.256;2022-07-29T11:07:38;9.67;;;4.70;;
434;SDS011;204;48.942;9.256;2022-07-29T11:15:06;5.43;;;5.13;;
434;SDS011;204;48.942;9.256;2022-07-29T11:23:17;12.30;;;7.40;;
434;SDS011;204;48.942;9.256;2022-07-29T11:31:34;5.00;;;4.70;;
434;SDS011;204;48.942;9.256;2022-07-29T11:39:34;5.03;;;4.73;;
434;SDS011;204;48.942;9.256;2022-07-29T11:47:26;5.40;;;5.10;;
434;SDS011;204;48.942;9.256;2022-07-29T11:49:55;4.90;;;4.60;;
434;SDS011;204;48.942;9.256;2022-07-29T11:52:23;4.47;;;4.17;;
434;SDS011;204;48.942;9.256;2022-07-29T11:54:56;4.80;;;4.50;;
434;SDS011;204;48.942;9.256;2022-07-29T11:57:26;6.40;;;5.43;;
434;SDS011;204;48.942;9.256;2022-07-29T11:59:52;5.27;;;4.20;;
434;SDS011;204;48.942;9.256;2022-07-29T12:02:20;7.23;;;4.63;;
434;SDS011;204;48.942;9.256;2022-07-29T12:04:52;7.57;;;4.63;;
434;SDS011;204;48.942;9.256;2022-07-29T12:07:29;4.87;;;4.57;;
434;SDS011;204;48.942;9.256;2022-07-29T12:09:55;4.67;;;4.20;;
434;SDS011;204;48.942;9.256;2022-07-29T12:12:22;5.17;;;4.90;;
434;SDS011;204;48.942;9.256;2022-07-29T12:14:48;10.10;;;5.03;;
434;SDS011;204;48.942;9.256;2022-07-29T12:17:26;4.80;;;4.47;;
434;SDS011;204;48.942;9.256;2022-07-29T12:19:56;5.23;;;4.93;;
434;SDS011;204;48.942;9.256;2022-07-29T12:22:34;5.50;;;5.20;;
434;SDS011;204;48.942;9.256;2022-07-29T12:25:04;5.77;;;5.47;;
434;SDS011;204;48.942;9.256;2022-07-29T12:27:29;7.60;;;5.70;;
434;SDS011;204;48.942;9.256;2022-07-29T12:29:59;5.47;;;5.17;;
434;SDS011;204;48.942;9.256;2022-07-29T12:32:34;5.70;;;5.03;;
434;SDS011;204;48.942;9.256;2022-07-29T12:37:32;6.10;;;5.33;;
434;SDS011;204;48.942;9.256;2022-07-29T12:39:59;5.90;;;5.00;;
434;SDS011;204;48.942;9.256;2022-07-29T12:42:26;5.60;;;5.30;;
434;SDS011;204;48.942;9.256;2022-07-29T12:44:52;7.33;;;6.07;;
434;SDS011;204;48.942;9.256;2022-07-29T12:47:18;5.77;;;5.47;;
434;SDS011;204;48.942;9.256;2022-07-29T12:49:45;10.73;;;5.50;;
434;SDS011;204;48.942;9.256;2022-07-29T12:52:31;5.90;;;4.90;;
434;SDS011;204;48.942;9.256;2022-07-29T12:54:58;4.80;;;4.50;;
434;SDS011;204;48.942;9.256;2022-07-29T12:57:24;5.30;;;5.00;;
434;SDS011;204;48.942;9.256;2022-07-29T13:02:28;6.57;;;4.50;;
434;SDS011;204;48.942;9.256;2022-07-29T13:04:55;5.00;;;4.37;;
434;SDS011;204;48.942;9.256;2022-07-29T13:07:25;4.73;;;4.43;;
434;SDS011;204;48.942;9.256;2022-07-29T13:09:54;4.90;;;4.60;;
434;SDS011;204;48.942;9.256;2022-07-29T13:12:34;5.23;;;3.70;;
434;SDS011;204;48.942;9.256;2022-07-29T13:14:59;5.53;;;3.53;;
434;SDS011;204;48.942;9.256;2022-07-29T13:17:26;8.10;;;7.70;;
434;SDS011;204;48.942;9.256;2022-07-29T13:20:07;6.37;;;6.00;;
434;SDS011;204;48.942;9.256;2022-07-29T13:22:37;5.27;;;4.97;;
434;SDS011;204;48.942;9.256;2022-07-29T13:25:03;3.17;;;2.97;;
434;SDS011;204;48.942;9.256;2022-07-29T13:27:32;4.87;;;4.60;;
434;SDS011;204;48.942;9.256;2022-07-29T13:29:59;6.03;;;4.63;;
434;SDS011;204;48.942;9.256;2022-07-29T13:32:26;6.50;;;6.10;;
434;SDS011;204;48.942;9.256;2022-07-29T13:34:53;3.97;;;3.77;;
434;SDS011;204;48.942;9.256;2022-07-29T13:37:23;4.57;;;4.27;;
434;SDS011;204;48.942;9.256;2022-07-29T13:39:50;3.80;;;3.43;;
434;SDS011;204;48.942;9.256;2022-07-29T13:42:17;3.70;;;3.10;;
434;SDS011;204;48.942;9.256;2022-07-29T13:44:43;3.07;;;2.87;;
434;SDS011;204;48.942;9.256;2022-07-29T13:47:08;3.50;;;3.30;;
434;SDS011;204;48.942;9.256;2022-07-29T13:49:34;3.63;;;3.43;;
434;SDS011;204;48.942;9.256;2022-07-29T13:52:00;4.30;;;4.00;;
434;SDS011;204;48.942;9.256;2022-07-29T13:54:26;5.20;;;4.90;;
434;SDS011;204;48.942;9.256;2022-07-29T13:56:52;4.30;;;4.00;;
434;SDS011;204;48.942;9.256;2022-07-29T13:59:17;5.70;;;3.40;;
434;SDS011;204;48.942;9.256;2022-07-29T14:01:43;3.43;;;3.23;;
434;SDS011;204;48.942;9.256;2022-07-29T14:04:09;3.90;;;3.70;;
434;SDS011;204;48.942;9.256;2022-07-29T14:06:35;4.50;;;4.20;;
434;SDS011;204;48.942;9.256;2022-07-29T14:09:01;6.40;;;6.00;;
434;SDS011;204;48.942;9.256;2022-07-29T14:11:27;4.60;;;4.30;;
434;SDS011;204;48.942;9.256;2022-07-29T14:13:52;4.47;;;4.17;;
434;SDS011;204;48.942;9.256;2022-07-29T14:16:18;4.10;;;3.50;;
434;SDS011;204;48.942;9.256;2022-07-29T14:18:43;3.80;;;3.60;;
434;SDS011;204;48.942;9.256;2022-07-29T14:21:09;6.30;;;4.50;;
434;SDS011;204;48.942;9.256;2022-07-29T14:23:35;4.40;;;4.07;;
434;SDS011;204;48.942;9.256;2022-07-29T14:26:01;4.67;;;4.37;;
434;SDS011;204;48.942;9.256;2022-07-29T14:28:27;5.90;;;4.60;;
434;SDS011;204;48.942;9.256;2022-07-29T14:30:52;6.10;;;4.73;;
434;SDS011;204;48.942;9.256;2022-07-29T14:33:18;6.30;;;4.20;;
434;SDS011;204;48.942;9.256;2022-07-29T14:35:44;10.67;;;4.30;;
434;SDS011;204;48.942;9.256;2022-07-29T14:38:09;4.80;;;4.50;;
434;SDS011;204;48.942;9.256;2022-07-29T14:40:35;4.97;;;4.67;;
434;SDS011;204;48.942;9.256;2022-07-29T14:43:01;5.27;;;4.97;;
434;SDS011;204;48.942;9.256;2022-07-29T14:45:27;5.47;;;5.17;;
434;SDS011;204;48.942;9.256;2022-07-29T14:47:53;5.00;;;4.20;;
434;SDS011;204;48.942;9.256;2022-07-29T14:50:19;4.67;;;3.80;;
434;SDS011;204;48.942;9.256;2022-07-29T14:52:45;4.50;;;4.20;;
434;SDS011;204;48.942;9.256;2022-07-29T14:55:11;4.83;;;4.53;;
434;SDS011;204;48.942;9.256;2022-07-29T14:57:36;5.60;;;4.33;;
434;SDS011;204;48.942;9.256;2022-07-29T15:00:05;4.07;;;3.87;;
434;SDS011;204;48.942;9.256;2022-07-29T15:02:32;5.40;;;5.10;;
434;SDS011;204;48.942;9.256;2022-07-29T15:04:58;10.47;;;5.50;;
434;SDS011;204;48.942;9.256;2022-07-29T15:07:24;4.90;;;4.60;;
434;SDS011;204;48.942;9.256;2022-07-29T15:09:49;5.30;;;4.60;;
434;SDS011;204;48.942;9.256;2022-07-29T15:12:15;4.57;;;4.27;;
434;SDS011;204;48.942;9.256;2022-07-29T15:14:41;6.07;;;4.70;;
434;SDS011;204;48.942;9.256;2022-07-29T15:17:06;5.70;;;5.40;;
434;SDS011;204;48.942;9.256;2022-07-29T15:19:32;6.37;;;5.73;;
434;SDS011;204;48.942;9.256;2022-07-29T15:21:58;5.00;;;4.50;;
434;SDS011;204;48.942;9.256;2022-07-29T15:24:23;4.40;;;4.10;;
434;SDS011;204;48.942;9.256;2022-07-29T15:26:49;5.20;;;4.90;;
434;SDS011;204;48.942;9.256;2022-07-29T15:29:15;7.97;;;5.60;;
434;SDS011;204;48.942;9.256;2022-07-29T15:31:41;6.20;;;4.90;;
434;SDS011;204;48.942;9.256;2022-07-29T15:34:07;6.17;;;4.87;;
434;SDS011;204;48.942;9.256;2022-07-29T15:36:32;4.87;;;4.57;;
434;SDS011;204;48.942;9.256;2022-07-29T15:38:58;4.90;;;4.60;;
434;SDS011;204;48.942;9.256;2022-07-29T15:41:24;4.73;;;4.47;;
434;SDS011;204;48.942;9.256;2022-07-29T15:43:49;5.23;;;4.80;;
434;SDS011;204;48.942;9.256;2022-07-29T15:46:16;7.23;;;4.97;;
434;SDS011;204;48.942;9.256;2022-07-29T15:49:02;5.90;;;4.90;;
434;SDS011;204;48.942;9.256;2022-07-29T15:51:29;5.30;;;5.00;;
434;SDS011;204;48.942;9.256;2022-07-29T15:53:55;5.83;;;5.10;;
434;SDS011;204;48.942;9.256;2022-07-29T15:56:21;4.47;;;4.20;;
434;SDS011;204;48.942;9.256;2022-07-29T15:58:47;4.77;;;4.10;;
434;SDS011;204;48.942;9.256;2022-07-29T16:01:12;3.60;;;3.40;;
434;SDS011;204;48.942;9.256;2022-07-29T16:03:38;3.93;;;3.73;;
434;SDS011;204;48.942;9.256;2022-07-29T16:06:04;4.40;;;4.10;;
434;SDS011;204;48.942;9.256;2022-07-29T16:08:29;4.23;;;3.40;;
434;SDS011;204;48.942;9.256;2022-07-29T16:10:55;2.67;;;2.10;;
434;SDS011;204;48.942;9.256;2022-07-29T16:13:21;3.83;;;2.53;;
434;SDS011;204;48.942;9.256;2022-07-29T16:15:46;3.60;;;3.40;;
434;SDS011;204;48.942;9.256;2022-07-29T16:18:12;5.37;;;2.50;;
434;SDS011;204;48.942;9.256;2022-07-29T16:20:38;3.10;;;2.90;;
434;SDS011;204;48.942;9.256;2022-07-29T16:23:04;3.03;;;2.83;;
434;SDS011;204;48.942;9.256;2022-07-29T16:25:33;4.73;;;3.53;;
434;SDS011;204;48.942;9.256;2022-07-29T16:27:59;2.30;;;2.10;;
434;SDS011;204;48.942;9.256;2022-07-29T16:30:24;4.57;;;2.30;;
434;SDS011;204;48.942;9.256;2022-07-29T16:32:50;3.53;;;2.23;;
434;SDS011;204;48.942;9.256;2022-07-29T16:35:16;3.27;;;2.53;;
434;SDS011;204;48.942;9.256;2022-07-29T16:37:41;3.83;;;2.23;;
434;SDS011;204;48.942;9.256;2022-07-29T16:40:07;4.53;;;2.40;;
434;SDS011;204;48.942;9.256;2022-07-29T16:42:33;11.37;;;3.20;;
434;SDS011;204;48.942;9.256;2022-07-29T16:44:59;4.30;;;2.97;;
434;SDS011;204;48.942;9.256;2022-07-29T16:47:24;2.43;;;1.73;;
434;SDS011;204;48.942;9.256;2022-07-29T16:49:50;2.80;;;2.50;;
434;SDS011;204;48.942;9.256;2022-07-29T16:52:16;6.70;;;3.47;;
434;SDS011;204;48.942;9.256;2022-07-29T16:54:42;5.03;;;2.47;;
434;SDS011;204;48.942;9.256;2022-07-29T16:57:07;5.50;;;5.20;;
434;SDS011;204;48.942;9.256;2022-07-29T16:59:33;4.97;;;4.10;;